createdAt,value
2022-10-10T00:01:28.654Z,3.05
2022-10-10T00:03:56.062Z,2.90
2022-10-10T00:06:23.662Z,2.60
2022-10-10T00:08:51.260Z,2.67
2022-10-10T00:11:20.626Z,2.40
2022-10-10T00:13:48.371Z,2.85
2022-10-10T00:16:15.876Z,2.70
2022-10-10T00:18:43.311Z,2.55
2022-10-10T00:21:11.016Z,3.15
2022-10-10T00:23:38.462Z,2.78
2022-10-10T00:26:08.998Z,2.70
2022-10-10T00:28:40.387Z,2.88
2022-10-10T00:31:09.340Z,2.95
2022-10-10T00:33:37.558Z,2.70
2022-10-10T00:36:06.703Z,2.83
2022-10-10T00:38:34.484Z,2.55
2022-10-10T00:41:02.168Z,2.42
2022-10-10T00:43:31.328Z,2.53
2022-10-10T00:45:59.071Z,2.40
2022-10-10T00:48:36.224Z,2.55
2022-10-10T00:51:11.770Z,2.20
2022-10-10T00:53:46.479Z,2.50
2022-10-10T00:56:15.517Z,2.30
2022-10-10T00:58:46.493Z,2.50
2022-10-10T01:01:13.596Z,2.65
2022-10-10T01:03:40.860Z,2.40
2022-10-10T01:06:08.443Z,2.30
2022-10-10T01:08:36.354Z,2.58
2022-10-10T01:11:21.527Z,2.70
2022-10-10T01:14:16.068Z,2.70
2022-10-10T01:17:18.263Z,2.75
2022-10-10T01:20:22.582Z,2.50
2022-10-10T01:23:23.804Z,2.30
2022-10-10T01:26:09.149Z,2.00
2022-10-10T01:29:02.868Z,2.75
2022-10-10T01:31:33.540Z,2.45
2022-10-10T01:34:17.346Z,2.58
2022-10-10T01:37:07.337Z,3.70
2022-10-10T01:40:03.693Z,3.55
2022-10-10T01:42:53.596Z,3.65
2022-10-10T01:45:21.239Z,3.28
2022-10-10T01:47:50.023Z,3.50
2022-10-10T01:50:22.225Z,3.78
2022-10-10T01:53:10.428Z,4.40
2022-10-10T01:55:52.878Z,4.13
2022-10-10T01:58:22.810Z,4.53
2022-10-10T02:01:04.156Z,4.18
2022-10-10T02:03:37.964Z,4.30
2022-10-10T02:06:12.768Z,4.65
2022-10-10T02:08:49.435Z,4.88
2022-10-10T02:11:16.522Z,7.03
2022-10-10T02:13:56.064Z,6.45
2022-10-10T02:16:28.100Z,6.65
2022-10-10T02:18:57.996Z,5.53
2022-10-10T02:21:25.299Z,5.47
2022-10-10T02:23:55.882Z,4.00
2022-10-10T02:26:25.249Z,3.65
2022-10-10T02:29:10.575Z,4.00
2022-10-10T02:32:00.200Z,3.50
2022-10-10T02:34:33.820Z,3.53
2022-10-10T02:37:07.505Z,3.50
2022-10-10T02:39:39.879Z,3.38
2022-10-10T02:42:10.002Z,3.35
2022-10-10T02:44:38.994Z,3.78
2022-10-10T02:47:07.041Z,3.30
2022-10-10T02:49:35.376Z,3.47
2022-10-10T02:52:03.714Z,2.95
2022-10-10T02:54:30.997Z,3.95
2022-10-10T02:56:58.144Z,3.65
2022-10-10T02:59:25.175Z,4.93
2022-10-10T03:01:52.249Z,4.78
2022-10-10T03:04:19.342Z,4.18
2022-10-10T03:06:46.782Z,3.70
2022-10-10T03:09:13.884Z,3.67
2022-10-10T03:11:40.943Z,3.75
2022-10-10T03:14:08.003Z,3.90
2022-10-10T03:16:35.034Z,3.83
2022-10-10T03:19:03.533Z,3.90
2022-10-10T03:21:30.548Z,3.10
2022-10-10T03:23:57.692Z,2.95
2022-10-10T03:26:24.753Z,2.90
2022-10-10T03:28:52.026Z,3.00
2022-10-10T03:31:19.194Z,3.10
2022-10-10T03:33:46.375Z,3.00
2022-10-10T03:36:13.564Z,2.90
2022-10-10T03:38:41.132Z,2.85
2022-10-10T03:41:08.370Z,3.03
2022-10-10T03:43:35.446Z,2.70
2022-10-10T03:46:02.364Z,2.80
2022-10-10T03:48:29.526Z,3.42
2022-10-10T03:50:56.568Z,2.83
2022-10-10T03:53:23.622Z,3.50
2022-10-10T03:55:50.722Z,3.75
2022-10-10T03:58:21.512Z,3.70
2022-10-10T04:00:56.356Z,3.70
2022-10-10T04:03:24.077Z,3.25
2022-10-10T04:05:52.369Z,3.00
2022-10-10T04:08:20.011Z,2.42
2022-10-10T04:10:51.835Z,2.10
2022-10-10T04:13:19.360Z,2.75
2022-10-10T04:15:46.563Z,2.97
2022-10-10T04:18:13.905Z,2.63
2022-10-10T04:20:40.909Z,2.75
2022-10-10T04:23:07.907Z,3.50
2022-10-10T04:25:34.970Z,3.25
2022-10-10T04:28:02.142Z,3.30
2022-10-10T04:30:35.129Z,3.60
2022-10-10T04:33:02.204Z,3.42
2022-10-10T04:35:29.362Z,2.80
2022-10-10T04:37:56.451Z,3.28
2022-10-10T04:40:26.628Z,2.70
2022-10-10T04:42:55.128Z,2.40
2022-10-10T04:45:26.569Z,2.90
2022-10-10T04:47:54.838Z,3.58
2022-10-10T04:50:23.149Z,3.83
2022-10-10T04:52:50.454Z,4.00
2022-10-10T04:55:18.227Z,3.80
2022-10-10T04:57:45.267Z,3.40
2022-10-10T05:00:14.048Z,3.53
2022-10-10T05:02:41.257Z,4.88
2022-10-10T05:05:09.172Z,4.03
2022-10-10T05:07:36.283Z,4.63
2022-10-10T05:10:04.104Z,3.95
2022-10-10T05:12:31.144Z,3.90
2022-10-10T05:14:58.217Z,3.80
2022-10-10T05:17:25.449Z,3.75
2022-10-10T05:19:52.553Z,3.53
2022-10-10T05:22:19.502Z,3.33
2022-10-10T05:24:46.434Z,3.55
2022-10-10T05:27:13.430Z,3.20
2022-10-10T05:29:40.510Z,3.08
2022-10-10T05:32:10.283Z,3.15
2022-10-10T05:34:38.523Z,3.80
2022-10-10T05:37:05.769Z,4.07
2022-10-10T05:39:32.853Z,3.90
2022-10-10T05:41:59.830Z,4.22
2022-10-10T05:44:27.164Z,4.00
2022-10-10T05:46:54.322Z,4.63
2022-10-10T05:49:21.445Z,4.30
2022-10-10T05:51:48.501Z,3.65
2022-10-10T05:54:15.476Z,3.60
2022-10-10T05:56:42.509Z,4.10
2022-10-10T05:59:09.612Z,3.88
2022-10-10T06:01:37.222Z,3.15
2022-10-10T06:04:04.513Z,4.13
2022-10-10T06:06:31.821Z,4.95
2022-10-10T06:08:59.700Z,4.50
2022-10-10T06:11:26.870Z,4.80
2022-10-10T06:13:57.415Z,4.10
2022-10-10T06:16:26.646Z,5.63
2022-10-10T06:18:56.749Z,5.45
2022-10-10T06:21:25.246Z,4.38
2022-10-10T06:23:52.646Z,3.67
2022-10-10T06:26:19.965Z,3.47
2022-10-10T06:28:47.163Z,3.38
2022-10-10T06:31:15.794Z,3.33
2022-10-10T06:33:45.548Z,3.10
2022-10-10T06:36:14.365Z,2.60
2022-10-10T06:38:44.775Z,2.80
2022-10-10T06:41:12.989Z,2.50
2022-10-10T06:43:41.491Z,2.47
2022-10-10T06:46:09.801Z,2.78
2022-10-10T06:48:36.983Z,2.53
2022-10-10T06:51:07.855Z,2.60
2022-10-10T06:53:35.877Z,2.80
2022-10-10T06:56:03.443Z,2.80
2022-10-10T06:58:30.691Z,2.53
2022-10-10T07:01:00.407Z,2.70
2022-10-10T07:03:28.967Z,2.60
2022-10-10T07:05:58.216Z,2.80
2022-10-10T07:08:26.206Z,2.25
2022-10-10T07:10:53.217Z,2.55
2022-10-10T07:13:20.580Z,2.40
2022-10-10T07:15:47.725Z,2.38
2022-10-10T07:18:15.000Z,2.38
2022-10-10T07:20:42.001Z,2.20
2022-10-10T07:23:09.258Z,2.35
2022-10-10T07:25:39.651Z,2.38
2022-10-10T07:28:07.934Z,1.95
2022-10-10T07:30:40.722Z,2.15
2022-10-10T07:33:07.776Z,2.13
2022-10-10T07:35:34.854Z,2.42
2022-10-10T07:38:01.883Z,2.60
2022-10-10T07:40:29.184Z,2.00
2022-10-10T07:42:56.374Z,4.45
2022-10-10T07:45:23.496Z,2.83
2022-10-10T07:47:53.222Z,2.70
2022-10-10T07:50:20.741Z,2.60
2022-10-10T07:52:47.645Z,2.70
2022-10-10T07:55:14.702Z,2.40
2022-10-10T07:57:41.785Z,2.70
2022-10-10T08:00:10.431Z,2.28
2022-10-10T08:02:40.532Z,2.78
2022-10-10T08:05:07.940Z,2.25
2022-10-10T08:07:35.309Z,2.40
2022-10-10T08:10:02.659Z,2.22
2022-10-10T08:12:31.300Z,2.45
2022-10-10T08:14:59.686Z,1.77
2022-10-10T08:17:26.886Z,2.40
2022-10-10T08:19:54.021Z,2.17
2022-10-10T08:22:20.999Z,1.90
2022-10-10T08:24:48.111Z,1.98
2022-10-10T08:27:17.829Z,2.30
2022-10-10T08:29:45.101Z,2.80
2022-10-10T08:32:12.199Z,2.60
2022-10-10T08:34:39.166Z,2.20
2022-10-10T08:37:06.103Z,2.03
2022-10-10T08:39:33.413Z,2.00
2022-10-10T08:42:02.806Z,2.30
2022-10-10T08:44:32.914Z,2.30
2022-10-10T08:47:11.202Z,2.05
2022-10-10T08:49:50.161Z,2.63
2022-10-10T08:52:55.359Z,2.33
2022-10-10T08:55:34.584Z,3.83
2022-10-10T08:58:12.412Z,3.35
2022-10-10T09:00:45.951Z,3.90
2022-10-10T09:03:31.061Z,2.75
2022-10-10T09:06:17.690Z,2.42
2022-10-10T09:08:59.779Z,3.30
2022-10-10T09:11:55.662Z,3.00
2022-10-10T09:14:37.706Z,2.15
2022-10-10T09:20:09.791Z,3.03
2022-10-10T09:22:48.717Z,2.35
2022-10-10T09:25:26.784Z,2.55
2022-10-10T09:28:20.584Z,3.10
2022-10-10T09:30:52.854Z,3.40
2022-10-10T09:33:28.426Z,3.20
2022-10-10T09:35:57.961Z,3.50
2022-10-10T09:38:57.545Z,3.92
2022-10-10T09:41:39.574Z,2.40
2022-10-10T09:44:11.687Z,3.22
2022-10-10T09:46:38.845Z,2.50
2022-10-10T09:49:06.212Z,2.60
2022-10-10T09:51:34.491Z,1.90
2022-10-10T09:54:02.399Z,2.60
2022-10-10T09:56:54.850Z,2.40
2022-10-10T09:59:42.006Z,2.17
2022-10-10T10:02:14.054Z,3.67
2022-10-10T10:04:41.114Z,2.90
2022-10-10T10:07:29.359Z,3.17
2022-10-10T10:10:11.055Z,3.05
2022-10-10T10:12:41.516Z,3.33
2022-10-10T10:15:21.986Z,3.08
2022-10-10T10:18:17.084Z,2.83
2022-10-10T10:20:46.422Z,2.75
2022-10-10T10:23:33.231Z,2.70
2022-10-10T10:26:07.087Z,2.90
2022-10-10T10:28:41.518Z,2.80
2022-10-10T10:31:31.187Z,2.60
2022-10-10T10:34:29.022Z,2.70
2022-10-10T10:36:56.035Z,3.10
2022-10-10T10:40:09.473Z,2.63
2022-10-10T10:43:11.447Z,2.90
2022-10-10T10:45:49.340Z,3.50
2022-10-10T10:48:39.700Z,2.80
2022-10-10T10:51:18.895Z,2.50
2022-10-10T10:53:54.811Z,2.58
2022-10-10T10:56:38.363Z,2.75
2022-10-10T11:02:07.820Z,3.95
2022-10-10T11:05:24.861Z,3.42
2022-10-10T11:07:53.336Z,3.10
2022-10-10T11:10:43.425Z,3.38
2022-10-10T11:13:29.177Z,3.20
2022-10-10T11:16:47.888Z,3.00
2022-10-10T11:21:46.094Z,3.40
2022-10-10T11:24:30.435Z,2.88
2022-10-10T11:27:02.716Z,2.80
2022-10-10T11:29:49.229Z,2.60
2022-10-10T11:32:22.333Z,3.40
2022-10-10T11:35:16.398Z,2.60
2022-10-10T11:37:52.289Z,3.60
2022-10-10T11:40:36.777Z,3.67
2022-10-10T11:43:08.465Z,4.28
2022-10-10T11:45:45.488Z,3.90
2022-10-10T11:48:18.367Z,3.00
2022-10-10T11:50:49.900Z,3.33
2022-10-10T11:53:32.365Z,3.17
2022-10-10T11:56:10.466Z,3.15
2022-10-10T11:58:44.574Z,2.50
2022-10-10T12:01:21.264Z,2.35
2022-10-10T12:03:51.409Z,3.05
2022-10-10T12:06:33.538Z,3.30
2022-10-10T12:09:03.967Z,3.28
2022-10-10T12:11:45.465Z,3.28
2022-10-10T12:14:18.261Z,3.08
2022-10-10T12:16:46.193Z,3.33
2022-10-10T12:19:19.492Z,9.25
2022-10-10T12:22:02.551Z,3.63
2022-10-10T12:24:38.665Z,2.97
2022-10-10T12:27:07.903Z,2.22
2022-10-10T12:29:56.832Z,3.80
2022-10-10T12:32:40.259Z,2.50
2022-10-10T12:35:27.497Z,2.13
2022-10-10T12:38:09.778Z,2.67
2022-10-10T12:41:10.385Z,7.80
2022-10-10T12:43:45.270Z,3.70
2022-10-10T12:46:26.468Z,3.40
2022-10-10T12:48:58.647Z,3.78
2022-10-10T12:51:26.815Z,3.97
2022-10-10T12:53:57.496Z,2.95
2022-10-10T12:56:38.758Z,2.92
2022-10-10T12:59:16.671Z,3.13
2022-10-10T13:01:47.087Z,3.58
2022-10-10T13:04:17.719Z,2.85
2022-10-10T13:06:47.159Z,3.10
2022-10-10T13:09:21.539Z,3.03
2022-10-10T13:12:01.859Z,3.03
2022-10-10T13:14:44.324Z,2.92
2022-10-10T13:17:23.932Z,2.83
2022-10-10T13:19:52.332Z,2.55
2022-10-10T13:22:20.763Z,2.20
2022-10-10T13:24:48.916Z,3.30
2022-10-10T13:27:28.490Z,2.47
2022-10-10T13:29:56.111Z,2.40
2022-10-10T13:32:29.101Z,2.00
2022-10-10T13:34:59.862Z,2.40
2022-10-10T13:37:27.975Z,2.60
2022-10-10T13:39:55.745Z,1.77
2022-10-10T13:42:38.978Z,2.30
2022-10-10T13:45:30.200Z,2.20
2022-10-10T13:48:00.699Z,2.10
2022-10-10T13:50:33.258Z,2.58
2022-10-10T13:53:32.271Z,2.95
2022-10-10T13:56:09.185Z,3.20
2022-10-10T13:59:05.213Z,3.13
2022-10-10T14:01:49.512Z,3.00
2022-10-10T14:04:19.236Z,3.60
2022-10-10T14:06:55.388Z,3.97
2022-10-10T14:09:25.714Z,3.08
2022-10-10T14:11:54.960Z,2.90
2022-10-10T14:14:32.455Z,2.17
2022-10-10T14:17:04.739Z,2.90
2022-10-10T14:19:33.257Z,2.88
2022-10-10T14:22:00.347Z,3.10
2022-10-10T14:24:27.448Z,3.47
2022-10-10T14:26:54.538Z,3.55
2022-10-10T14:29:22.013Z,4.00
2022-10-10T14:31:49.152Z,4.20
2022-10-10T14:34:16.506Z,3.80
2022-10-10T14:36:50.332Z,3.80
2022-10-10T14:39:18.841Z,4.53
2022-10-10T14:41:46.756Z,4.22
2022-10-10T14:44:13.744Z,3.47
2022-10-10T14:46:41.777Z,3.53
2022-10-10T14:49:19.618Z,3.50
2022-10-10T14:51:48.059Z,3.35
2022-10-10T14:54:15.153Z,3.58
2022-10-10T14:57:06.789Z,3.55
2022-10-10T14:59:47.420Z,3.58
2022-10-10T15:02:24.090Z,3.50
2022-10-10T15:04:51.347Z,3.20
2022-10-10T15:07:19.298Z,3.85
2022-10-10T15:12:38.449Z,3.22
2022-10-10T15:15:06.768Z,3.20
2022-10-10T15:17:34.611Z,3.53
2022-10-10T15:20:03.500Z,4.15
2022-10-10T15:22:31.072Z,4.55
2022-10-10T15:24:58.111Z,3.65
2022-10-10T15:27:25.348Z,3.97
2022-10-10T15:29:52.288Z,4.07
2022-10-10T15:32:19.272Z,4.20
2022-10-10T15:34:50.177Z,3.92
2022-10-10T15:37:17.832Z,4.30
2022-10-10T15:39:45.906Z,4.10
2022-10-10T15:42:18.592Z,4.38
2022-10-10T15:44:49.623Z,4.80
2022-10-10T15:47:17.873Z,4.97
2022-10-10T15:49:45.361Z,4.95
2022-10-10T15:52:12.675Z,4.90
2022-10-10T15:54:39.828Z,4.80
2022-10-10T15:57:07.017Z,4.55
2022-10-10T15:59:36.832Z,5.32
2022-10-10T16:02:06.300Z,5.15
2022-10-10T16:04:33.579Z,5.00
2022-10-10T16:09:47.653Z,6.78
2022-10-10T16:12:14.727Z,6.43
2022-10-10T16:14:41.798Z,5.70
2022-10-10T16:17:08.820Z,7.68
2022-10-10T16:19:35.819Z,7.20
2022-10-10T16:22:02.963Z,8.63
2022-10-10T16:24:30.710Z,9.77
2022-10-10T16:26:59.585Z,8.10
2022-10-10T16:29:26.633Z,8.10
2022-10-10T16:31:53.653Z,8.20
2022-10-10T16:34:21.842Z,8.00
2022-10-10T16:36:48.884Z,7.80
2022-10-10T16:39:15.958Z,7.45
2022-10-10T16:41:48.192Z,7.78
2022-10-10T16:44:16.243Z,7.47
2022-10-10T16:46:43.587Z,7.60
2022-10-10T16:49:12.908Z,7.80
2022-10-10T16:51:40.181Z,8.10
2022-10-10T16:54:07.581Z,7.85
2022-10-10T16:56:35.485Z,8.82
2022-10-10T16:59:03.000Z,7.40
2022-10-10T17:01:30.543Z,7.35
2022-10-10T17:04:02.046Z,8.13
2022-10-10T17:06:35.341Z,8.80
2022-10-10T17:09:02.985Z,8.57
2022-10-10T17:11:30.351Z,9.38
2022-10-10T17:13:58.079Z,10.10
2022-10-10T17:17:28.744Z,11.65
2022-10-10T17:19:14.679Z,10.50
2022-10-10T17:21:41.663Z,9.05
2022-10-10T17:24:08.747Z,8.25
2022-10-10T17:26:35.781Z,7.75
2022-10-10T17:29:02.907Z,8.00
2022-10-10T17:31:29.942Z,7.57
2022-10-10T17:33:57.785Z,7.50
2022-10-10T17:36:26.832Z,7.70
2022-10-10T17:39:00.469Z,7.88
2022-10-10T17:41:28.721Z,7.10
2022-10-10T17:43:56.187Z,7.80
2022-10-10T17:46:35.278Z,8.15
2022-10-10T17:49:05.901Z,7.60
2022-10-10T17:51:34.637Z,8.57
2022-10-10T17:54:02.855Z,9.55
2022-10-10T17:56:30.499Z,9.88
2022-10-10T17:58:59.669Z,9.30
2022-10-10T18:01:26.937Z,9.15
2022-10-10T18:03:53.999Z,9.77
2022-10-10T18:06:22.764Z,8.75
2022-10-10T18:08:51.771Z,8.88
2022-10-10T18:11:21.328Z,10.18
2022-10-10T18:13:48.448Z,10.32
2022-10-10T18:16:19.086Z,10.57
2022-10-10T18:18:51.056Z,11.27
2022-10-10T18:21:23.158Z,10.07
2022-10-10T18:23:50.560Z,10.30
2022-10-10T18:26:20.727Z,8.82
2022-10-10T18:28:48.635Z,9.57
2022-10-10T18:31:18.096Z,8.15
2022-10-10T18:33:45.830Z,8.95
2022-10-10T18:36:19.669Z,8.18
2022-10-10T18:38:48.667Z,8.48
2022-10-10T18:41:20.470Z,8.70
2022-10-10T18:43:49.175Z,8.13
2022-10-10T18:46:20.616Z,8.75
2022-10-10T18:48:53.552Z,7.60
2022-10-10T18:51:27.256Z,7.50
2022-10-10T18:54:03.919Z,6.85
2022-10-10T18:56:32.779Z,6.60
2022-10-10T18:59:02.647Z,6.00
2022-10-10T19:01:33.345Z,5.75
2022-10-10T19:04:00.467Z,6.03
2022-10-10T19:06:27.401Z,6.72
2022-10-10T19:08:56.552Z,6.20
2022-10-10T19:11:31.756Z,6.78
2022-10-10T19:14:00.936Z,6.47
2022-10-10T19:16:28.299Z,5.90
2022-10-10T19:18:58.644Z,6.57
2022-10-10T19:21:29.182Z,7.30
2022-10-10T19:23:56.363Z,6.90
2022-10-10T19:26:23.472Z,6.72
2022-10-10T19:28:50.456Z,7.05
2022-10-10T19:31:19.294Z,7.78
2022-10-10T19:33:52.144Z,8.00
2022-10-10T19:36:19.262Z,8.10
2022-10-10T19:38:46.650Z,7.63
2022-10-10T19:41:14.442Z,7.80
2022-10-10T19:43:42.915Z,7.18
2022-10-10T19:46:13.005Z,7.97
2022-10-10T19:48:40.544Z,7.70
2022-10-10T19:51:10.125Z,8.02
2022-10-10T19:53:38.121Z,7.72
2022-10-10T19:56:08.861Z,8.82
2022-10-10T19:58:37.160Z,8.65
2022-10-10T20:01:13.926Z,8.60
2022-10-10T20:03:41.402Z,7.43
2022-10-10T20:06:08.535Z,12.02
2022-10-10T20:08:35.628Z,11.23
2022-10-10T20:11:02.858Z,9.15
2022-10-10T20:13:32.175Z,10.18
2022-10-10T20:16:01.656Z,8.93
2022-10-10T20:18:29.760Z,8.18
2022-10-10T20:20:56.713Z,9.48
2022-10-10T20:23:25.155Z,9.45
2022-10-10T20:25:52.823Z,10.18
2022-10-10T20:28:20.958Z,9.88
2022-10-10T20:30:50.841Z,10.57
2022-10-10T20:33:19.620Z,10.73
2022-10-10T20:35:49.356Z,9.65
2022-10-10T20:38:19.322Z,8.90
2022-10-10T20:40:46.443Z,9.48
2022-10-10T20:43:14.879Z,9.43
2022-10-10T20:45:42.035Z,9.43
2022-10-10T20:48:10.067Z,9.80
2022-10-10T20:50:38.183Z,9.00
2022-10-10T20:53:06.698Z,9.52
2022-10-10T20:55:33.832Z,10.50
2022-10-10T20:58:01.108Z,9.68
2022-10-10T21:00:28.081Z,9.65
2022-10-10T21:02:56.162Z,10.20
2022-10-10T21:05:23.349Z,9.90
2022-10-10T21:07:50.388Z,10.25
2022-10-10T21:10:17.374Z,11.65
2022-10-10T21:12:44.294Z,10.93
2022-10-10T21:15:11.562Z,10.52
2022-10-10T21:17:38.988Z,11.15
2022-10-10T21:20:07.372Z,11.70
2022-10-10T21:22:34.339Z,11.25
2022-10-10T21:25:01.389Z,11.32
2022-10-10T21:27:30.318Z,11.63
2022-10-10T21:29:57.204Z,10.75
2022-10-10T21:32:26.513Z,10.73
2022-10-10T21:34:56.415Z,11.57
2022-10-10T21:37:23.983Z,10.95
2022-10-10T21:39:50.949Z,10.20
2022-10-10T21:42:18.108Z,11.00
2022-10-10T21:44:45.121Z,9.25
2022-10-10T21:47:12.104Z,9.32
2022-10-10T21:49:39.153Z,9.38
2022-10-10T21:52:06.075Z,8.65
2022-10-10T21:54:32.958Z,8.25
2022-10-10T21:56:59.911Z,8.75
2022-10-10T21:59:30.377Z,7.63
2022-10-10T22:01:57.610Z,8.57
2022-10-10T22:04:28.828Z,8.52
2022-10-10T22:06:56.433Z,7.93
2022-10-10T22:09:23.476Z,8.65
2022-10-10T22:11:50.741Z,7.65
2022-10-10T22:14:17.953Z,7.80
2022-10-10T22:16:44.886Z,6.18
2022-10-10T22:19:11.796Z,7.10
2022-10-10T22:21:38.816Z,6.85
2022-10-10T22:24:07.448Z,7.13
2022-10-10T22:26:35.457Z,7.28
2022-10-10T22:29:03.231Z,7.43
2022-10-10T22:31:30.317Z,7.90
2022-10-10T22:33:57.655Z,8.00
2022-10-10T22:36:24.898Z,6.90
2022-10-10T22:38:52.284Z,7.07
2022-10-10T22:41:19.247Z,7.15
2022-10-10T22:43:46.254Z,7.07
2022-10-10T22:46:13.730Z,6.90
2022-10-10T22:48:40.752Z,6.80
2022-10-10T22:51:16.310Z,7.43
2022-10-10T22:53:44.763Z,6.90
2022-10-10T22:56:15.618Z,6.20
2022-10-10T22:58:43.443Z,7.72
2022-10-10T23:01:15.281Z,8.57
2022-10-10T23:03:42.830Z,7.82
2022-10-10T23:06:10.135Z,8.82
2022-10-10T23:08:37.373Z,7.60
2022-10-10T23:11:04.620Z,5.68
2022-10-10T23:13:32.196Z,6.90
2022-10-10T23:15:59.447Z,6.60
2022-10-10T23:18:28.513Z,6.85
2022-10-10T23:20:55.623Z,7.47
2022-10-10T23:23:22.671Z,7.15
2022-10-10T23:25:49.976Z,7.55
2022-10-10T23:28:17.824Z,7.10
2022-10-10T23:30:47.202Z,7.15
2022-10-10T23:33:15.681Z,7.35
2022-10-10T23:35:42.655Z,7.80
2022-10-10T23:38:09.620Z,7.47
2022-10-10T23:40:36.830Z,7.25
2022-10-10T23:43:04.094Z,7.00
2022-10-10T23:45:31.381Z,7.22
2022-10-10T23:47:58.385Z,6.75
2022-10-10T23:50:25.452Z,7.20
2022-10-10T23:52:52.556Z,6.72
2022-10-10T23:56:13.247Z,7.68
2022-10-10T23:58:53.352Z,7.25
